Time;durP1;ratioP1;P1;durP2;ratioP2;P2;SDS_P1;SDS_P2;PMS_P1;PMS_P2;Temp;Humidity;BMP_temperature;BMP_pressure;BME280_temperature;BME280_humidity;BME280_pressure;Samples;Min_cycle;Max_cycle;Signal;HPM_P1;HPM_P2
2021/08/23 00:00:55;;;;;;;1.23;0.80;;;16.70;75.50;;;;;;5057543;28;20795;-78
2021/08/23 00:03:21;;;;;;;1.15;0.70;;;16.70;75.50;;;;;;5056389;28;20064;-78
2021/08/23 00:05:47;;;;;;;1.92;0.70;;;16.70;75.50;;;;;;5058142;28;20037;-78
2021/08/23 00:08:15;;;;;;;0.93;0.60;;;16.60;76.00;;;;;;5058042;28;20112;-78
2021/08/23 00:10:41;;;;;;;0.90;0.60;;;16.50;76.20;;;;;;5065783;28;20074;-78
2021/08/23 00:13:08;;;;;;;2.35;0.80;;;16.50;75.90;;;;;;5078070;28;20115;-78
2021/08/23 00:15:34;;;;;;;0.95;0.65;;;16.50;76.40;;;;;;5058180;28;20036;-78
2021/08/23 00:18:00;;;;;;;1.38;0.85;;;16.40;77.50;;;;;;5056602;28;20029;-78
2021/08/23 00:20:41;;;;;;;1.75;0.90;;;16.30;77.10;;;;;;5057573;28;20063;-78
2021/08/23 00:23:10;;;;;;;1.38;0.88;;;16.30;77.10;;;;;;5057708;28;20029;-78
2021/08/23 00:25:36;;;;;;;1.55;1.00;;;16.40;76.90;;;;;;5057576;28;20024;-78
2021/08/23 00:28:02;;;;;;;2.92;1.00;;;16.40;77.20;;;;;;5057673;28;20035;-78
2021/08/23 00:30:28;;;;;;;1.30;0.82;;;16.40;76.90;;;;;;5057510;28;20029;-78
2021/08/23 00:32:53;;;;;;;1.73;0.82;;;16.40;77.10;;;;;;5057521;28;20029;-78
2021/08/23 00:35:19;;;;;;;1.15;0.75;;;16.40;77.10;;;;;;5057400;28;20033;-78
2021/08/23 00:37:45;;;;;;;1.35;0.80;;;16.40;76.70;;;;;;5057574;28;20356;-78
2021/08/23 00:40:11;;;;;;;2.00;0.90;;;16.30;76.80;;;;;;5074337;28;20021;-78
2021/08/23 00:42:36;;;;;;;1.00;0.70;;;16.30;76.70;;;;;;5057547;28;20044;-78
2021/08/23 00:45:02;;;;;;;2.13;0.85;;;16.30;76.40;;;;;;5055998;28;20527;-78
2021/08/23 00:47:28;;;;;;;2.65;0.93;;;16.30;76.40;;;;;;5055269;28;20045;-78
2021/08/23 00:49:54;;;;;;;1.58;0.75;;;16.30;76.60;;;;;;5057524;28;20112;-78
2021/08/23 00:52:19;;;;;;;1.30;0.60;;;16.30;77.20;;;;;;5057293;28;20051;-78
2021/08/23 00:54:45;;;;;;;1.00;0.75;;;16.20;76.70;;;;;;5072573;28;20476;-78
2021/08/23 00:57:11;;;;;;;1.58;0.90;;;16.20;76.80;;;;;;5057175;28;20025;-78
2021/08/23 00:59:42;;;;;;;1.27;0.73;;;16.30;77.10;;;;;;5056990;28;20064;-78
2021/08/23 01:02:07;;;;;;;1.60;0.93;;;16.30;77.10;;;;;;5055628;28;20475;-78
2021/08/23 01:04:33;;;;;;;1.58;1.00;;;16.30;77.00;;;;;;5056803;28;20021;-78
2021/08/23 01:07:02;;;;;;;1.88;0.80;;;16.30;77.10;;;;;;5072304;28;20064;-78
2021/08/23 01:09:32;;;;;;;2.22;1.15;;;16.30;77.40;;;;;;5056957;28;20078;-78
2021/08/23 01:12:00;;;;;;;1.80;1.00;;;16.30;77.10;;;;;;5056794;28;20033;-78
2021/08/23 01:14:26;;;;;;;1.30;0.80;;;16.30;77.00;;;;;;5056856;28;20030;-78
2021/08/23 01:16:52;;;;;;;1.50;1.00;;;16.20;77.20;;;;;;5056707;28;20032;-78
2021/08/23 01:19:19;;;;;;;2.28;0.93;;;16.20;77.30;;;;;;5056407;28;20036;-78
2021/08/23 01:21:48;;;;;;;1.73;0.80;;;16.20;76.80;;;;;;5056670;28;20105;-78
2021/08/23 01:24:15;;;;;;;1.20;0.95;;;16.20;76.90;;;;;;5058419;28;20028;-78
2021/08/23 01:26:45;;;;;;;1.67;1.05;;;16.10;77.20;;;;;;5061852;28;20032;-78
2021/08/23 01:29:24;;;;;;;1.45;0.80;;;16.10;77.10;;;;;;5056234;28;20473;-78
2021/08/23 01:31:56;;;;;;;1.42;0.90;;;16.10;77.00;;;;;;5056304;28;20033;-78
2021/08/23 01:34:24;;;;;;;2.00;1.10;;;16.10;77.10;;;;;;5056507;28;20054;-78
2021/08/23 01:36:50;;;;;;;1.80;1.30;;;16.10;77.10;;;;;;5056243;28;20109;-78
2021/08/23 01:39:23;;;;;;;2.83;1.05;;;16.10;77.00;;;;;;5056316;28;20033;-78
2021/08/23 01:41:49;;;;;;;3.25;1.23;;;16.10;77.10;;;;;;5056253;28;20029;-78
2021/08/23 01:44:15;;;;;;;1.52;0.98;;;16.10;77.20;;;;;;5056042;28;20028;-78
2021/08/23 01:46:40;;;;;;;2.65;1.00;;;16.10;77.00;;;;;;5055995;28;20056;-79
2021/08/23 01:49:08;;;;;;;1.35;1.00;;;16.00;77.00;;;;;;5071250;28;20095;-78
2021/08/23 01:51:35;;;;;;;1.90;1.17;;;16.00;77.00;;;;;;5056055;28;20025;-78
2021/08/23 01:54:01;;;;;;;1.50;0.90;;;16.00;77.40;;;;;;5054566;28;20079;-78
2021/08/23 01:56:29;;;;;;;2.35;1.30;;;16.00;77.50;;;;;;5056107;28;20025;-79
2021/08/23 01:58:58;;;;;;;1.20;0.98;;;16.00;77.50;;;;;;5055751;28;20111;-78
2021/08/23 02:01:24;;;;;;;1.35;1.00;;;15.90;77.60;;;;;;5055879;28;20051;-78
2021/08/23 02:03:49;;;;;;;2.10;1.20;;;15.90;78.10;;;;;;5054467;28;20438;-78
2021/08/23 02:06:16;;;;;;;1.65;1.10;;;15.90;77.50;;;;;;5055682;28;20814;-78
2021/08/23 02:08:42;;;;;;;1.25;0.80;;;15.90;77.60;;;;;;5055850;28;20025;-79
2021/08/23 02:11:08;;;;;;;1.52;1.00;;;15.90;77.90;;;;;;5055681;28;20025;-78
2021/08/23 02:13:33;;;;;;;1.30;0.98;;;15.90;77.70;;;;;;5055729;28;20051;-78
2021/08/23 02:15:59;;;;;;;1.30;1.10;;;15.90;78.10;;;;;;5055580;28;20024;-78
2021/08/23 02:18:24;;;;;;;1.05;0.95;;;15.90;78.20;;;;;;5055489;28;20039;-78
2021/08/23 02:20:50;;;;;;;1.65;1.17;;;16.00;78.40;;;;;;5055202;28;20104;-78
2021/08/23 02:23:16;;;;;;;1.35;0.95;;;16.00;78.10;;;;;;5070673;28;20131;-78
2021/08/23 02:25:41;;;;;;;1.73;1.20;;;16.00;77.60;;;;;;5054141;28;20113;-78
2021/08/23 02:28:07;;;;;;;2.13;1.10;;;16.10;78.10;;;;;;5055382;28;20021;-78
2021/08/23 02:30:33;;;;;;;1.40;1.00;;;16.00;78.40;;;;;;5055396;28;20087;-78
2021/08/23 02:32:58;;;;;;;1.35;1.02;;;16.00;78.40;;;;;;5055497;28;20396;-78
2021/08/23 02:35:24;;;;;;;1.20;1.10;;;16.00;78.40;;;;;;5061719;28;20055;-78
2021/08/23 02:37:50;;;;;;;1.10;0.90;;;16.00;78.20;;;;;;5075500;28;20028;-78
2021/08/23 02:40:15;;;;;;;1.20;0.80;;;16.00;78.20;;;;;;5074733;28;20032;-78
2021/08/23 02:42:41;;;;;;;1.35;0.82;;;16.00;78.10;;;;;;5075243;28;20035;-78
2021/08/23 02:45:07;;;;;;;1.10;0.80;;;16.00;78.50;;;;;;5073978;28;20024;-78
2021/08/23 02:47:36;;;;;;;1.00;0.80;;;16.00;78.20;;;;;;5074963;28;20037;-79
2021/08/23 02:50:08;;;;;;;1.58;0.70;;;16.00;78.30;;;;;;5069082;28;20082;-78
2021/08/23 02:52:34;;;;;;;1.15;0.70;;;16.00;78.30;;;;;;5055478;28;20074;-78
2021/08/23 02:55:00;;;;;;;1.60;0.80;;;16.00;78.50;;;;;;5054993;28;20033;-78
2021/08/23 02:57:26;;;;;;;1.55;0.68;;;16.10;78.50;;;;;;5055112;28;20096;-78
2021/08/23 02:59:51;;;;;;;2.38;0.80;;;16.10;78.20;;;;;;5055071;28;20033;-79
2021/08/23 03:02:17;;;;;;;1.05;0.70;;;16.10;78.40;;;;;;5063736;28;20094;-78
2021/08/23 03:04:43;;;;;;;1.85;0.65;;;16.20;78.40;;;;;;5075077;28;20104;-78
2021/08/23 03:07:08;;;;;;;0.85;0.60;;;16.20;78.40;;;;;;5075056;28;20027;-78
2021/08/23 03:09:34;;;;;;;1.00;0.60;;;16.20;77.90;;;;;;5075039;28;20526;-79
2021/08/23 03:12:00;;;;;;;1.58;0.50;;;16.10;77.90;;;;;;5056974;28;20028;-78
2021/08/23 03:14:26;;;;;;;0.80;0.50;;;16.10;78.40;;;;;;5060088;28;20032;-78
2021/08/23 03:16:51;;;;;;;0.80;0.50;;;16.10;78.60;;;;;;5074770;28;20025;-78
2021/08/23 03:19:17;;;;;;;0.88;0.60;;;16.10;78.60;;;;;;5074999;28;20036;-78
2021/08/23 03:21:43;;;;;;;0.90;0.55;;;16.10;78.30;;;;;;5059972;28;20039;-78
2021/08/23 03:24:11;;;;;;;0.90;0.50;;;16.10;78.30;;;;;;5054846;28;20396;-78
2021/08/23 03:26:37;;;;;;;0.98;0.68;;;16.10;78.40;;;;;;5054925;28;20028;-78
2021/08/23 03:29:02;;;;;;;1.55;0.60;;;16.20;78.30;;;;;;5054914;28;20029;-79
2021/08/23 03:31:28;;;;;;;0.95;0.70;;;16.10;78.10;;;;;;5071968;28;20029;-78
2021/08/23 03:33:54;;;;;;;1.20;0.70;;;16.20;78.20;;;;;;5072297;28;20028;-78
2021/08/23 03:36:20;;;;;;;1.05;0.77;;;16.20;78.60;;;;;;5054817;28;20040;-78
2021/08/23 03:38:51;;;;;;;1.52;0.75;;;16.10;78.90;;;;;;5054534;28;20029;-78
2021/08/23 03:41:17;;;;;;;1.30;1.00;;;16.00;79.70;;;;;;5064925;28;20029;-78
2021/08/23 03:43:43;;;;;;;1.48;0.80;;;16.00;80.00;;;;;;5074837;28;20025;-78
2021/08/23 03:46:10;;;;;;;1.45;1.00;;;16.10;79.30;;;;;;5057948;28;20567;-78
2021/08/23 03:48:35;;;;;;;1.60;1.02;;;16.00;79.40;;;;;;5054516;28;20071;-78
2021/08/23 03:51:01;;;;;;;2.25;1.20;;;16.20;79.00;;;;;;5054990;28;20099;-79
2021/08/23 03:53:27;;;;;;;1.30;1.10;;;16.00;79.70;;;;;;5058297;28;20047;-78
2021/08/23 03:55:52;;;;;;;1.42;1.08;;;16.00;79.40;;;;;;5058277;28;20103;-78
2021/08/23 03:58:18;;;;;;;1.60;1.10;;;16.10;79.10;;;;;;5058158;28;20488;-78
2021/08/23 04:00:44;;;;;;;1.27;1.08;;;16.20;78.90;;;;;;5058295;28;20103;-78
2021/08/23 04:03:09;;;;;;;1.23;0.98;;;16.20;78.80;;;;;;5058096;28;20033;-79
2021/08/23 04:05:35;;;;;;;1.83;1.13;;;16.20;78.90;;;;;;5057981;28;20029;-79
2021/08/23 04:08:01;;;;;;;1.92;1.00;;;16.20;79.00;;;;;;5073003;28;20029;-78
2021/08/23 04:10:27;;;;;;;1.33;1.00;;;16.20;79.00;;;;;;5057963;28;20021;-78
2021/08/23 04:12:55;;;;;;;1.30;1.00;;;16.20;79.10;;;;;;5058092;28;20064;-78
2021/08/23 04:15:21;;;;;;;1.30;1.00;;;16.20;79.10;;;;;;5057973;28;20548;-78
2021/08/23 04:17:47;;;;;;;1.33;1.05;;;16.20;79.50;;;;;;5057742;28;20060;-78
2021/08/23 04:20:13;;;;;;;1.30;1.10;;;16.30;79.10;;;;;;5069055;28;20417;-78
2021/08/23 04:22:39;;;;;;;1.35;0.90;;;16.30;79.10;;;;;;5056271;28;20037;-78
2021/08/23 04:25:06;;;;;;;0.90;0.60;;;16.30;79.30;;;;;;5056468;28;20028;-79
2021/08/23 04:27:31;;;;;;;2.20;1.05;;;16.20;79.60;;;;;;5057762;28;20175;-78
2021/08/23 04:30:07;;;;;;;0.90;0.70;;;16.30;79.50;;;;;;5072630;28;20071;-78
2021/08/23 04:32:33;;;;;;;1.98;0.95;;;16.30;79.30;;;;;;5057623;28;20027;-78
2021/08/23 04:34:58;;;;;;;1.00;0.90;;;16.30;79.00;;;;;;5064150;28;20084;-78
2021/08/23 04:37:24;;;;;;;1.88;0.88;;;16.30;78.90;;;;;;5077687;28;20029;-78
2021/08/23 04:39:50;;;;;;;1.10;0.85;;;16.30;79.00;;;;;;5077460;28;20020;-78
2021/08/23 04:42:15;;;;;;;1.58;1.00;;;16.30;78.90;;;;;;5074598;28;20084;-78
2021/08/23 04:44:44;;;;;;;1.27;1.00;;;16.20;79.00;;;;;;5057332;28;20463;-78
2021/08/23 04:47:10;;;;;;;1.20;0.88;;;16.20;79.20;;;;;;5057218;28;20053;-78
2021/08/23 04:49:36;;;;;;;1.05;0.77;;;16.20;80.00;;;;;;5062586;28;20051;-78
2021/08/23 04:52:02;;;;;;;1.40;1.10;;;16.20;79.40;;;;;;5061023;28;20029;-78
2021/08/23 04:54:28;;;;;;;1.20;1.00;;;16.20;79.30;;;;;;5057237;28;20060;-78
2021/08/23 04:56:53;;;;;;;1.27;1.00;;;16.20;79.40;;;;;;5057247;28;20036;-78
2021/08/23 04:59:19;;;;;;;1.50;1.30;;;16.30;79.70;;;;;;5057130;28;20051;-78
2021/08/23 05:01:45;;;;;;;2.03;1.00;;;16.30;79.50;;;;;;5056774;28;20055;-78
2021/08/23 05:04:11;;;;;;;1.17;0.88;;;16.20;79.40;;;;;;5056386;28;20017;-78
2021/08/23 05:06:37;;;;;;;1.40;1.02;;;16.20;79.40;;;;;;5057125;28;20029;-78
2021/08/23 05:09:02;;;;;;;1.38;1.02;;;16.10;79.40;;;;;;5070054;28;20051;-78
2021/08/23 05:11:29;;;;;;;2.28;0.85;;;16.20;79.40;;;;;;5077008;28;20406;-78
2021/08/23 05:13:55;;;;;;;1.45;1.08;;;16.20;79.30;;;;;;5075878;28;20025;-78
2021/08/23 05:16:20;;;;;;;1.33;1.10;;;16.20;79.20;;;;;;5056944;28;20028;-78
2021/08/23 05:18:46;;;;;;;1.30;1.20;;;16.20;79.50;;;;;;5056728;28;20115;-78
2021/08/23 05:21:12;;;;;;;1.40;1.20;;;16.20;79.40;;;;;;5058615;28;20108;-79
2021/08/23 05:23:37;;;;;;;1.50;1.20;;;16.30;79.20;;;;;;5076671;28;20064;-78
2021/08/23 05:26:09;;;;;;;1.38;1.20;;;16.20;79.00;;;;;;5062479;28;20040;-78
2021/08/23 05:28:34;;;;;;;1.23;0.95;;;16.30;79.10;;;;;;5056950;28;20111;-78
2021/08/23 05:31:00;;;;;;;1.15;1.05;;;16.30;79.20;;;;;;5070406;28;20917;-78
2021/08/23 05:33:26;;;;;;;1.55;1.30;;;16.10;79.70;;;;;;5067803;28;20035;-78
2021/08/23 05:35:51;;;;;;;2.35;1.27;;;16.20;79.50;;;;;;5064316;28;20035;-78
2021/08/23 05:38:17;;;;;;;1.67;1.17;;;16.20;79.50;;;;;;5068681;28;20112;-78
2021/08/23 05:40:43;;;;;;;1.63;1.27;;;16.20;79.30;;;;;;5074501;28;20033;-78
2021/08/23 05:43:08;;;;;;;1.45;1.05;;;16.20;79.10;;;;;;5076039;28;20024;-78
2021/08/23 05:45:34;;;;;;;2.25;1.13;;;16.20;78.90;;;;;;5070776;28;20039;-79
2021/08/23 05:48:00;;;;;;;1.67;1.10;;;16.20;79.10;;;;;;5056230;28;20024;-78
2021/08/23 05:50:25;;;;;;;1.63;0.98;;;16.30;78.90;;;;;;5058361;28;20032;-78
2021/08/23 05:52:51;;;;;;;2.17;1.05;;;16.30;78.60;;;;;;5075971;28;20025;-78
2021/08/23 05:55:17;;;;;;;1.67;1.10;;;16.30;78.40;;;;;;5075939;28;20035;-78
2021/08/23 05:57:42;;;;;;;1.92;0.85;;;16.30;78.50;;;;;;5074626;28;20028;-78
2021/08/23 06:00:10;;;;;;;1.50;0.90;;;16.40;78.50;;;;;;5074527;28;20143;-78
2021/08/23 06:02:35;;;;;;;1.30;0.82;;;16.40;77.90;;;;;;5075631;28;20108;-78
2021/08/23 06:05:01;;;;;;;1.65;0.90;;;16.40;77.80;;;;;;5072343;28;20056;-78
2021/08/23 06:07:27;;;;;;;1.10;0.80;;;16.50;77.70;;;;;;5055849;28;20104;-78
2021/08/23 06:09:52;;;;;;;1.45;0.85;;;16.50;77.40;;;;;;5068245;28;20024;-78
2021/08/23 06:12:18;;;;;;;1.23;1.02;;;16.40;77.70;;;;;;5076045;28;20028;-78
2021/08/23 06:14:44;;;;;;;1.13;0.90;;;16.50;78.10;;;;;;5073384;28;20070;-78
2021/08/23 06:17:09;;;;;;;2.63;1.30;;;16.60;77.70;;;;;;5075426;28;20031;-78
2021/08/23 06:19:35;;;;;;;1.60;1.00;;;16.60;77.70;;;;;;5075536;28;20483;-78
2021/08/23 06:22:01;;;;;;;1.30;1.00;;;16.60;77.80;;;;;;5074089;28;20036;-78
2021/08/23 06:24:27;;;;;;;1.65;1.00;;;16.70;77.80;;;;;;5064372;28;20032;-78
2021/08/23 06:26:53;;;;;;;3.33;1.33;;;16.70;77.60;;;;;;5055485;28;20021;-78
2021/08/23 06:29:19;;;;;;;1.60;1.02;;;16.80;77.50;;;;;;5055341;28;20028;-78
2021/08/23 06:31:44;;;;;;;1.80;1.10;;;16.80;77.20;;;;;;5055327;28;20033;-78
2021/08/23 06:34:10;;;;;;;1.58;1.27;;;16.90;77.10;;;;;;5067950;28;20116;-78
2021/08/23 06:36:36;;;;;;;1.73;1.15;;;17.00;76.60;;;;;;5055195;28;20025;-78
2021/08/23 06:39:03;;;;;;;2.38;1.20;;;17.00;77.20;;;;;;5055174;28;20064;-78
2021/08/23 06:41:28;;;;;;;1.63;1.25;;;17.10;77.10;;;;;;5068445;28;20032;-78
2021/08/23 06:43:55;;;;;;;1.45;1.05;;;17.20;77.00;;;;;;5075268;28;20036;-79
2021/08/23 06:46:20;;;;;;;1.70;1.10;;;17.20;77.10;;;;;;5067729;28;20051;-79
2021/08/23 06:48:48;;;;;;;2.80;1.20;;;17.20;77.10;;;;;;5070415;28;20387;-78
2021/08/23 06:51:19;;;;;;;1.15;0.80;;;17.30;77.20;;;;;;5055093;28;20024;-79
2021/08/23 06:53:45;;;;;;;1.23;0.80;;;17.20;77.10;;;;;;5055140;28;20454;-78
2021/08/23 06:56:10;;;;;;;1.20;0.90;;;17.20;77.40;;;;;;5055113;28;20025;-78
2021/08/23 06:58:36;;;;;;;1.33;1.10;;;17.30;77.30;;;;;;5055064;28;20037;-78
2021/08/23 07:01:02;;;;;;;1.55;0.90;;;17.40;77.70;;;;;;5055005;28;20018;-78
2021/08/23 07:03:27;;;;;;;1.95;1.05;;;17.50;77.50;;;;;;5054926;28;20039;-78
2021/08/23 07:05:53;;;;;;;1.13;0.85;;;17.50;77.20;;;;;;5054814;28;20021;-78
2021/08/23 07:08:19;;;;;;;2.53;1.00;;;17.60;77.30;;;;;;5055119;28;20112;-78
2021/08/23 07:10:44;;;;;;;1.00;0.80;;;17.70;77.00;;;;;;5055298;28;20024;-78
2021/08/23 07:13:10;;;;;;;1.10;0.70;;;17.70;77.10;;;;;;5054883;28;20045;-78
2021/08/23 07:15:36;;;;;;;1.90;1.08;;;17.70;77.20;;;;;;5053691;28;20033;-78
2021/08/23 07:18:02;;;;;;;1.52;1.08;;;17.80;77.10;;;;;;5062023;28;20099;-78
2021/08/23 07:20:27;;;;;;;1.10;0.82;;;17.80;77.00;;;;;;5074999;28;20052;-78
2021/08/23 07:22:53;;;;;;;1.33;1.05;;;18.00;77.10;;;;;;5074639;28;20099;-78
2021/08/23 07:25:19;;;;;;;1.58;0.90;;;18.10;76.90;;;;;;5074956;28;20563;-78
2021/08/23 07:27:44;;;;;;;1.70;1.00;;;18.20;76.40;;;;;;5061149;28;20039;-79
2021/08/23 07:30:10;;;;;;;1.20;1.00;;;18.30;76.60;;;;;;5058699;28;20506;-78
2021/08/23 07:32:36;;;;;;;1.80;0.90;;;18.30;76.40;;;;;;5058623;28;20028;-78
2021/08/23 07:35:02;;;;;;;2.35;1.05;;;18.30;75.80;;;;;;5061172;28;20386;-78
2021/08/23 07:37:29;;;;;;;1.65;1.08;;;18.40;75.80;;;;;;5058599;28;20024;-78
2021/08/23 07:39:54;;;;;;;1.52;1.00;;;18.50;75.90;;;;;;5072968;28;20108;-78
2021/08/23 07:42:20;;;;;;;1.00;0.90;;;18.60;75.50;;;;;;5078672;28;20060;-78
2021/08/23 07:44:46;;;;;;;1.10;0.90;;;18.80;75.10;;;;;;5078378;28;20028;-78
2021/08/23 07:47:11;;;;;;;1.15;1.02;;;18.80;74.90;;;;;;5065878;28;20053;-78
2021/08/23 07:49:37;;;;;;;1.30;1.13;;;18.80;75.10;;;;;;5058367;28;20053;-78
2021/08/23 07:52:03;;;;;;;1.10;0.93;;;18.90;74.90;;;;;;5058382;28;20029;-78
2021/08/23 07:54:32;;;;;;;1.15;0.98;;;19.20;74.40;;;;;;5058139;28;20025;-78
2021/08/23 07:56:58;;;;;;;1.10;0.80;;;19.20;74.00;;;;;;5058281;28;20080;-79
2021/08/23 07:59:23;;;;;;;1.30;0.90;;;19.50;73.90;;;;;;5058013;28;20059;-79
2021/08/23 08:01:49;;;;;;;1.00;0.80;;;20.40;71.80;;;;;;5058127;28;20120;-79
2021/08/23 08:04:14;;;;;;;1.00;0.80;;;21.10;69.60;;;;;;5057938;28;20456;-78
2021/08/23 08:06:44;;;;;;;0.98;0.70;;;21.30;68.60;;;;;;5065872;28;20503;-79
2021/08/23 08:09:10;;;;;;;1.10;0.80;;;21.20;68.30;;;;;;5076583;28;20032;-79
2021/08/23 08:11:36;;;;;;;1.10;0.85;;;21.30;68.20;;;;;;5078192;28;20028;-79
2021/08/23 08:14:02;;;;;;;1.02;0.80;;;21.60;67.70;;;;;;5075153;28;20086;-78
2021/08/23 08:16:27;;;;;;;1.20;0.70;;;23.00;64.60;;;;;;5057927;28;20086;-79
2021/08/23 08:18:54;;;;;;;0.90;0.60;;;24.80;59.80;;;;;;5057590;28;20021;-77
2021/08/23 08:21:21;;;;;;;0.98;0.40;;;25.20;58.10;;;;;;5057939;28;20029;-77
2021/08/23 08:23:52;;;;;;;1.35;0.50;;;25.00;57.80;;;;;;5059819;28;20021;-77
2021/08/23 08:26:19;;;;;;;1.20;0.63;;;24.30;59.00;;;;;;5077808;28;20073;-77
2021/08/23 08:28:45;;;;;;;0.73;0.50;;;24.30;58.70;;;;;;5066221;28;20032;-78
2021/08/23 08:31:10;;;;;;;0.77;0.50;;;25.00;57.10;;;;;;5057905;28;20025;-78
2021/08/23 08:33:36;;;;;;;0.80;0.50;;;26.80;54.40;;;;;;5064805;28;20060;-78
2021/08/23 08:36:02;;;;;;;0.88;0.50;;;28.30;50.30;;;;;;5077599;28;20021;-78
2021/08/23 08:38:27;;;;;;;1.25;0.40;;;29.00;47.70;;;;;;5076419;28;20033;-78
2021/08/23 08:40:58;;;;;;;0.80;0.45;;;29.10;46.90;;;;;;5068670;28;20045;-78
2021/08/23 08:43:23;;;;;;;0.90;0.50;;;28.70;46.80;;;;;;5077319;28;20024;-78
2021/08/23 08:45:49;;;;;;;0.70;0.45;;;29.10;47.30;;;;;;5077295;28;20045;-78
2021/08/23 08:48:18;;;;;;;0.65;0.40;;;30.10;46.10;;;;;;5077298;28;20024;-78
2021/08/23 08:50:44;;;;;;;0.80;0.50;;;30.70;44.30;;;;;;5058479;28;20048;-78
2021/08/23 08:53:10;;;;;;;2.03;0.55;;;31.30;42.80;;;;;;5057224;28;20029;-78
2021/08/23 08:55:36;;;;;;;1.25;0.40;;;31.90;41.60;;;;;;5057411;28;20578;-78
2021/08/23 08:58:05;;;;;;;0.57;0.38;;;31.50;41.10;;;;;;5056975;28;20052;-78
2021/08/23 09:00:36;;;;;;;0.90;0.30;;;31.70;41.00;;;;;;5057114;28;20021;-78
2021/08/23 09:03:02;;;;;;;0.80;0.45;;;31.60;40.30;;;;;;5056878;28;20071;-78
2021/08/23 09:05:39;;;;;;;0.68;0.30;;;32.10;41.40;;;;;;5055380;28;20025;-78
2021/08/23 09:08:06;;;;;;;0.70;0.40;;;31.50;41.20;;;;;;5056995;28;20033;-78
2021/08/23 09:10:34;;;;;;;0.70;0.40;;;32.30;39.70;;;;;;5066409;28;20020;-78
2021/08/23 09:13:01;;;;;;;0.20;0.10;;;32.70;39.60;;;;;;5076967;28;20035;-78
2021/08/23 09:15:27;;;;;;;0.38;0.20;;;33.30;39.10;;;;;;5076712;28;20036;-78
2021/08/23 09:18:20;;;;;;;0.80;0.40;;;33.80;38.40;;;;;;5072476;28;20108;-78
2021/08/23 09:21:00;;;;;;;1.27;0.30;;;33.40;37.90;;;;;;5053796;28;20029;-78
2021/08/23 09:23:37;;;;;;;0.52;0.22;;;32.50;38.50;;;;;;5056597;28;20029;-78
2021/08/23 09:26:15;;;;;;;0.82;0.40;;;31.80;39.60;;;;;;5055130;28;20039;-78
2021/08/23 09:28:58;;;;;;;0.65;0.30;;;31.50;39.90;;;;;;5056376;28;20047;-80
2021/08/23 09:31:25;;;;;;;0.95;0.35;;;31.90;40.30;;;;;;5056557;28;20070;-78
2021/08/23 09:33:51;;;;;;;0.70;0.40;;;31.20;40.80;;;;;;5055974;28;20014;-77
2021/08/23 09:36:20;;;;;;;0.60;0.30;;;31.30;40.70;;;;;;5056462;28;20155;-78
2021/08/23 09:38:57;;;;;;;;;;;32.20;40.00;;;;;;5056873;28;20029;-78
2021/08/23 09:41:23;;;;;;;0.55;0.35;;;32.80;38.80;;;;;;5068414;28;20442;-78
2021/08/23 09:44:05;;;;;;;0.68;0.38;;;32.80;39.20;;;;;;5076136;28;20059;-78
2021/08/23 09:46:33;;;;;;;0.90;0.40;;;33.30;37.90;;;;;;5056120;28;20045;-78
2021/08/23 09:48:59;;;;;;;0.40;0.30;;;33.70;37.60;;;;;;5056124;28;20134;-78
2021/08/23 09:51:33;;;;;;;0.40;0.20;;;34.10;37.30;;;;;;5056393;28;20345;-78
2021/08/23 09:54:13;;;;;;;0.88;0.20;;;34.40;36.80;;;;;;5055825;28;20032;-77
2021/08/23 09:56:45;;;;;;;0.77;0.30;;;34.00;36.00;;;;;;5074706;28;20028;-78
2021/08/23 09:59:14;;;;;;;1.35;0.45;;;33.00;37.90;;;;;;5076036;28;20020;-78
2021/08/23 10:01:40;;;;;;;0.95;0.40;;;33.20;36.60;;;;;;5068043;28;20120;-78
2021/08/23 10:04:07;;;;;;;0.68;0.30;;;32.50;38.50;;;;;;5054366;28;20064;-78
2021/08/23 10:06:36;;;;;;;0.80;0.38;;;33.00;39.10;;;;;;5055921;28;20104;-78
2021/08/23 10:09:03;;;;;;;0.28;0.17;;;33.50;38.50;;;;;;5054122;28;20033;-78
2021/08/23 10:11:34;;;;;;;0.73;0.30;;;32.90;38.40;;;;;;5055619;28;20391;-78
2021/08/23 10:14:00;;;;;;;0.55;0.25;;;33.00;38.90;;;;;;5055471;28;20092;-77
2021/08/23 10:16:27;;;;;;;0.43;0.22;;;32.50;38.20;;;;;;5055741;28;20100;-78
2021/08/23 10:18:53;;;;;;;0.40;0.20;;;31.30;40.80;;;;;;5070905;28;20553;-78
2021/08/23 10:21:21;;;;;;;0.98;0.30;;;31.50;40.50;;;;;;5055309;28;20036;-78
2021/08/23 10:23:49;;;;;;;0.80;0.50;;;31.70;40.70;;;;;;5055571;28;20044;-78
2021/08/23 10:26:16;;;;;;;1.15;0.35;;;31.60;40.50;;;;;;5073458;28;20025;-78
2021/08/23 10:28:47;;;;;;;0.88;0.35;;;31.60;40.50;;;;;;5074188;28;20025;-77
2021/08/23 10:31:15;;;;;;;0.60;0.32;;;30.70;41.10;;;;;;5075584;28;20056;-78
2021/08/23 10:33:46;;;;;;;0.60;0.20;;;30.00;43.70;;;;;;5059729;28;20036;-78
2021/08/23 10:36:15;;;;;;;0.88;0.40;;;30.00;45.30;;;;;;5060622;28;20025;-78
2021/08/23 10:38:41;;;;;;;0.80;0.40;;;29.70;44.10;;;;;;5054144;28;20029;-78
2021/08/23 10:41:26;;;;;;;1.00;0.55;;;29.20;44.50;;;;;;5065201;28;20525;-78
2021/08/23 10:43:56;;;;;;;0.93;0.30;;;28.70;45.70;;;;;;5075258;28;20036;-78
2021/08/23 10:46:29;;;;;;;;;;;28.10;46.90;;;;;;5075782;28;20045;-78
2021/08/23 10:48:57;;;;;;;1.17;0.77;;;27.90;48.50;;;;;;5064058;28;19920;-78
2021/08/23 10:51:33;;;;;;;0.93;0.55;;;28.20;48.60;;;;;;5055127;28;20476;-78
2021/08/23 10:53:59;;;;;;;0.52;0.32;;;28.10;47.90;;;;;;5055099;28;20111;-78
2021/08/23 10:56:42;;;;;;;0.85;0.40;;;27.80;49.10;;;;;;5055108;28;20027;-77
2021/08/23 10:59:16;;;;;;;0.73;0.43;;;27.70;49.10;;;;;;5054984;28;20036;-77
2021/08/23 11:01:56;;;;;;;0.85;0.50;;;27.80;48.80;;;;;;5069489;28;20074;-78
2021/08/23 11:04:34;;;;;;;0.77;0.43;;;28.00;49.20;;;;;;5081662;28;20028;-78
2021/08/23 11:07:01;;;;;;;1.00;0.50;;;28.00;48.30;;;;;;5069385;28;20025;-78
2021/08/23 11:09:42;;;;;;;1.02;0.50;;;27.90;48.60;;;;;;5061540;28;20029;-78
2021/08/23 11:12:12;;;;;;;1.05;0.40;;;27.70;49.40;;;;;;5061532;28;20021;-77
2021/08/23 11:14:43;;;;;;;1.17;0.50;;;27.80;49.20;;;;;;5061639;28;20121;-78
2021/08/23 11:17:09;;;;;;;1.48;0.40;;;27.80;49.60;;;;;;5061510;28;20032;-77
2021/08/23 11:19:38;;;;;;;0.75;0.40;;;27.30;49.70;;;;;;5061667;28;20033;-79
2021/08/23 11:22:04;;;;;;;0.90;0.52;;;27.10;49.90;;;;;;5078392;28;20040;-78
2021/08/23 11:24:32;;;;;;;1.05;0.50;;;26.90;50.50;;;;;;5081474;28;20028;-78
2021/08/23 11:27:02;;;;;;;1.00;0.47;;;26.90;50.60;;;;;;5066998;28;20033;-78
2021/08/23 11:29:42;;;;;;;1.23;0.50;;;26.90;50.50;;;;;;5061493;28;20086;-77
2021/08/23 11:32:09;;;;;;;0.98;0.50;;;27.10;50.40;;;;;;5061283;28;20040;-77
2021/08/23 11:34:36;;;;;;;0.85;0.50;;;27.30;51.30;;;;;;5061500;28;20032;-77
2021/08/23 11:37:04;;;;;;;0.60;0.35;;;27.50;50.60;;;;;;5060035;28;20040;-77
2021/08/23 11:39:34;;;;;;;0.90;0.50;;;27.10;50.80;;;;;;5061414;28;20025;-78
2021/08/23 11:42:02;;;;;;;1.00;0.60;;;27.00;51.10;;;;;;5079160;28;20024;-78
2021/08/23 11:44:28;;;;;;;1.10;0.70;;;26.80;51.20;;;;;;5072551;28;20035;-78
2021/08/23 11:47:03;;;;;;;0.80;0.50;;;26.90;51.10;;;;;;5076349;28;20055;-78
2021/08/23 11:49:31;;;;;;;1.23;0.68;;;27.10;52.20;;;;;;5061207;28;20017;-78
2021/08/23 11:51:58;;;;;;;1.08;0.60;;;27.10;51.10;;;;;;5081244;28;20066;-78
2021/08/23 11:54:24;;;;;;;1.00;0.55;;;27.00;50.90;;;;;;5081182;28;20032;-78
2021/08/23 11:56:49;;;;;;;1.48;0.60;;;27.00;50.10;;;;;;5081429;28;20555;-79
2021/08/23 11:59:15;;;;;;;1.30;0.60;;;27.00;49.90;;;;;;5079275;28;20029;-77
2021/08/23 12:01:41;;;;;;;0.85;0.43;;;27.20;49.30;;;;;;5059762;28;20032;-78
2021/08/23 12:04:07;;;;;;;0.80;0.50;;;27.30;49.60;;;;;;5059741;28;20744;-78
2021/08/23 12:06:34;;;;;;;0.70;0.40;;;27.30;50.30;;;;;;5061188;28;20031;-78
2021/08/23 12:09:01;;;;;;;0.73;0.50;;;27.30;50.90;;;;;;5060990;28;20024;-78
2021/08/23 12:11:27;;;;;;;0.73;0.52;;;27.30;51.00;;;;;;5061136;28;20025;-78
2021/08/23 12:13:53;;;;;;;1.95;0.90;;;27.60;50.50;;;;;;5057925;28;20029;-77
2021/08/23 12:16:36;;;;;;;0.90;0.60;;;27.50;49.80;;;;;;5056454;28;20518;-78
2021/08/23 12:19:10;;;;;;;1.20;0.80;;;27.30;50.70;;;;;;5057682;28;20029;-77
2021/08/23 12:21:37;;;;;;;1.00;0.60;;;27.10;50.50;;;;;;5057856;28;20013;-78
2021/08/23 12:24:05;;;;;;;1.05;0.68;;;27.00;50.90;;;;;;5056250;28;20033;-77
2021/08/23 12:26:53;;;;;;;1.45;0.70;;;26.90;51.80;;;;;;5057795;28;20522;-78
2021/08/23 12:29:26;;;;;;;0.90;0.50;;;26.90;51.90;;;;;;5057624;28;20056;-78
2021/08/23 12:31:57;;;;;;;0.90;0.52;;;27.10;51.00;;;;;;5057640;28;20021;-78
2021/08/23 12:34:28;;;;;;;0.90;0.50;;;27.10;51.10;;;;;;5057426;28;20495;-78
2021/08/23 12:36:59;;;;;;;0.80;0.52;;;27.00;50.00;;;;;;5057546;28;20388;-78
2021/08/23 12:39:26;;;;;;;1.10;0.63;;;26.90;50.10;;;;;;5057422;28;20116;-77
2021/08/23 12:41:54;;;;;;;0.85;0.63;;;27.10;50.90;;;;;;5072531;28;20028;-77
2021/08/23 12:44:20;;;;;;;0.70;0.50;;;27.30;50.40;;;;;;5077245;28;20437;-78
2021/08/23 12:46:47;;;;;;;1.17;0.77;;;27.40;49.80;;;;;;5077151;28;20055;-78
2021/08/23 12:49:13;;;;;;;1.23;0.68;;;27.30;50.70;;;;;;5062194;28;20029;-78